Time;durP1;ratioP1;P1;durP2;ratioP2;P2;SDS_P1;SDS_P2;PMS_P1;PMS_P2;Temp;Humidity;BMP_temperature;BMP_pressure;BME280_temperature;BME280_humidity;BME280_pressure;Samples;Min_cycle;Max_cycle;Signal;HPM_P1;HPM_P2
2022/04/18 00:02:21;;;;;;;12.68;9.23;;;;;;;7.14;60.55;101910.19;5051516;28;20024;-76
2022/04/18 00:04:47;;;;;;;13.20;8.82;;;;;;;7.11;61.04;101913.00;5061605;28;20107;-76
2022/04/18 00:07:12;;;;;;;12.38;8.07;;;;;;;7.06;61.92;101913.19;5069441;28;20495;-68
2022/04/18 00:09:38;;;;;;;14.88;8.90;;;;;;;7.00;62.13;101920.69;5063098;28;20442;-75
2022/04/18 00:12:04;;;;;;;14.20;8.60;;;;;;;6.90;62.75;101901.22;5066427;28;21762;-75
2022/04/18 00:14:30;;;;;;;12.23;8.40;;;;;;;6.86;61.85;101905.03;5049010;28;20124;-68
2022/04/18 00:16:56;;;;;;;12.18;8.20;;;;;;;6.85;61.87;101908.66;5068640;28;20043;-69
2022/04/18 00:19:21;;;;;;;11.85;8.30;;;;;;;6.82;61.75;101909.66;5068124;28;20377;-68
2022/04/18 00:21:47;;;;;;;11.60;7.72;;;;;;;6.77;61.88;101903.56;5067739;28;20028;-75
2022/04/18 00:24:14;;;;;;;13.68;7.68;;;;;;;6.78;61.15;101907.16;5063119;28;20028;-69
2022/04/18 00:26:40;;;;;;;16.35;8.85;;;;;;;6.73;61.56;101901.91;5063462;28;20048;-76
2022/04/18 00:29:09;;;;;;;11.30;8.15;;;;;;;6.73;61.63;101909.16;5051460;28;20029;-71
2022/04/18 00:31:34;;;;;;;11.40;7.43;;;;;;;6.73;60.88;101906.44;5067951;28;20507;-75
2022/04/18 00:34:00;;;;;;;13.30;8.23;;;;;;;6.70;61.07;101903.84;5060984;28;20091;-74
2022/04/18 00:36:25;;;;;;;11.77;7.38;;;;;;;6.71;61.37;101906.47;5062683;28;20040;-69
2022/04/18 00:38:50;;;;;;;10.55;6.97;;;;;;;6.65;61.48;101907.59;5068985;28;20039;-69
2022/04/18 00:41:16;;;;;;;10.18;7.18;;;;;;;6.61;60.79;101911.38;5067035;28;20091;-75
2022/04/18 00:43:43;;;;;;;14.20;8.10;;;;;;;6.54;61.20;101909.88;5064775;28;20039;-71
2022/04/18 00:46:10;;;;;;;10.85;7.22;;;;;;;6.51;61.52;101906.38;5050957;28;20020;-69
2022/04/18 00:48:35;;;;;;;9.43;7.07;;;;;;;6.49;60.72;101905.59;5067638;28;20426;-72
2022/04/18 00:51:06;;;;;;;10.10;7.07;;;;;;;6.46;60.91;101903.00;5063074;28;20040;-75
2022/04/18 00:53:32;;;;;;;12.63;7.43;;;;;;;6.43;62.05;101903.09;5068021;28;20498;-68
2022/04/18 00:55:58;;;;;;;11.77;7.82;;;;;;;6.40;61.35;101904.09;5066710;28;20056;-75
2022/04/18 00:58:24;;;;;;;10.40;7.10;;;;;;;6.39;61.42;101905.06;5064491;28;20029;-68
2022/04/18 01:00:49;;;;;;;10.93;7.05;;;;;;;6.38;60.93;101905.97;5069140;28;20462;-69
2022/04/18 01:03:15;;;;;;;9.45;7.25;;;;;;;6.35;61.81;101901.56;5067619;28;20543;-68
2022/04/18 01:05:41;;;;;;;11.88;7.03;;;;;;;6.33;61.39;101897.16;5076191;28;20457;-75
2022/04/18 01:08:07;;;;;;;10.15;6.53;;;;;;;6.29;62.43;101884.69;5053450;28;20552;-70
2022/04/18 01:10:32;;;;;;;9.30;6.55;;;;;;;6.27;60.33;101892.00;5068539;28;20119;-75
2022/04/18 01:12:58;;;;;;;11.88;7.18;;;;;;;6.19;62.47;101889.56;5050817;28;20094;-69
2022/04/18 01:15:37;;;;;;;8.25;6.15;;;;;;;6.19;60.50;101899.50;5070891;28;20036;-75
2022/04/18 01:18:08;;;;;;;10.10;6.10;;;;;;;6.19;60.41;101900.38;5053540;28;20040;-75
2022/04/18 01:20:52;;;;;;;9.48;6.20;;;;;;;6.21;60.11;101894.94;5071285;28;20051;-68
2022/04/18 01:23:41;;;;;;;12.95;6.63;;;;;;;6.17;60.92;101893.28;5032798;28;20121;-69
2022/04/18 01:29:09;;;;;;;7.68;5.90;;;;;;;6.10;60.86;101888.09;5067059;28;20033;-74
2022/04/18 01:31:39;;;;;;;11.98;6.43;;;;;;;6.03;62.21;101889.28;5054822;28;20086;-75
2022/04/18 01:34:07;;;;;;;9.48;6.05;;;;;;;5.94;62.44;101892.31;5072469;28;20203;-75
2022/04/18 01:36:33;;;;;;;7.88;6.13;;;;;;;5.87;62.25;101890.72;5053131;28;20472;-75
2022/04/18 01:39:03;;;;;;;7.45;5.60;;;;;;;5.80;61.75;101887.38;5069334;28;20032;-69
2022/04/18 01:41:28;;;;;;;6.55;5.50;;;;;;;5.80;61.68;101889.19;5066141;28;20426;-68
2022/04/18 01:43:54;;;;;;;8.77;5.47;;;;;;;5.78;61.83;101891.03;5067385;28;20033;-75
2022/04/18 01:46:20;;;;;;;7.80;5.95;;;;;;;5.74;61.51;101892.13;5053661;28;20039;-70
2022/04/18 01:48:51;;;;;;;9.27;5.38;;;;;;;5.69;61.84;101891.38;5066419;28;20041;-74
2022/04/18 01:51:18;;;;;;;7.05;5.28;;;;;;;5.65;61.63;101890.63;5064544;28;20028;-69
2022/04/18 01:53:44;;;;;;;8.75;5.63;;;;;;;5.63;61.96;101884.38;5059367;28;20038;-69
2022/04/18 01:56:09;;;;;;;10.27;5.70;;;;;;;5.61;62.28;101886.25;5069278;28;20036;-69
2022/04/18 01:58:37;;;;;;;6.63;5.43;;;;;;;5.60;62.13;101889.91;5066922;28;20033;-75
2022/04/18 02:01:03;;;;;;;7.28;5.47;;;;;;;5.55;62.32;101879.28;5070627;28;20040;-75
2022/04/18 02:03:28;;;;;;;10.73;6.20;;;;;;;5.50;62.22;101869.53;5053452;28;20044;-69
2022/04/18 02:05:55;;;;;;;8.30;5.47;;;;;;;5.49;61.56;101876.75;5057037;28;20096;-75
2022/04/18 02:08:23;;;;;;;5.60;4.60;;;;;;;5.51;62.11;101876.72;5066994;28;20032;-70
2022/04/18 02:10:48;;;;;;;8.35;5.82;;;;;;;5.48;62.59;101871.44;5063604;28;20510;-76
2022/04/18 02:13:19;;;;;;;6.82;5.22;;;;;;;5.39;62.37;101869.94;5064210;28;20038;-70
2022/04/18 02:15:45;;;;;;;6.25;4.80;;;;;;;5.41;62.20;101872.56;5063193;28;20040;-69
2022/04/18 02:18:10;;;;;;;9.52;4.95;;;;;;;5.40;62.22;101876.19;5068907;28;20036;-75
2022/04/18 02:20:37;;;;;;;10.88;5.68;;;;;;;5.39;62.34;101864.53;5069556;28;20043;-70
2022/04/18 02:23:02;;;;;;;7.85;5.40;;;;;;;5.35;62.30;101871.84;5071277;28;20013;-75
2022/04/18 02:25:27;;;;;;;6.10;4.30;;;;;;;5.34;61.28;101871.91;5068678;28;20029;-75
2022/04/18 02:27:58;;;;;;;8.38;4.93;;;;;;;5.30;62.55;101872.94;5063919;28;20400;-74
2022/04/18 02:30:23;;;;;;;8.20;5.10;;;;;;;5.23;63.01;101861.47;5070010;28;20024;-75
2022/04/18 02:32:52;;;;;;;8.23;4.88;;;;;;;5.20;63.14;101863.41;5070069;28;20016;-75
2022/04/18 02:35:20;;;;;;;10.95;5.32;;;;;;;5.15;62.92;101860.84;5069437;28;20025;-76
2022/04/18 02:37:48;;;;;;;10.75;5.35;;;;;;;5.15;62.50;101863.56;5069453;28;20449;-74
2022/04/18 02:40:19;;;;;;;6.72;4.68;;;;;;;5.14;62.79;101858.22;5068367;28;20029;-68
2022/04/18 02:42:45;;;;;;;9.88;4.60;;;;;;;5.14;62.75;101859.09;5072718;28;20033;-68
2022/04/18 02:45:18;;;;;;;7.70;4.80;;;;;;;5.09;63.02;101855.69;5053654;28;20445;-75
2022/04/18 02:48:05;;;;;;;10.20;5.25;;;;;;;5.04;62.62;101852.25;5070788;28;20043;-75
2022/04/18 02:50:32;;;;;;;7.18;5.30;;;;;;;4.98;63.11;101849.72;5052168;28;20074;-69
2022/04/18 02:52:58;;;;;;;6.85;4.75;;;;;;;4.94;66.05;101846.25;5052344;28;20437;-70
2022/04/18 02:55:35;;;;;;;6.63;4.53;;;;;;;4.88;65.12;101842.88;5053235;28;20063;-71
2022/04/18 02:58:01;;;;;;;6.03;4.35;;;;;;;4.81;65.08;101832.31;5047314;28;20123;-71
2022/04/18 03:00:29;;;;;;;7.15;4.80;;;;;;;4.81;64.92;101834.13;5052586;28;20035;-68
2022/04/18 03:02:55;;;;;;;5.57;3.92;;;;;;;4.78;64.29;101832.41;5068965;28;20495;-69
2022/04/18 03:05:20;;;;;;;8.85;4.75;;;;;;;4.77;64.64;101819.88;5066907;28;20442;-69
2022/04/18 03:07:46;;;;;;;8.63;4.72;;;;;;;4.74;64.50;101827.16;5052376;28;20028;-69
2022/04/18 03:10:14;;;;;;;6.28;4.28;;;;;;;4.73;63.38;101828.09;5067894;28;20040;-68
2022/04/18 03:12:40;;;;;;;5.65;3.85;;;;;;;4.74;63.36;101822.66;5063409;28;20036;-68
2022/04/18 03:15:07;;;;;;;8.07;3.92;;;;;;;4.75;63.61;101826.22;5067683;28;20495;-70
2022/04/18 03:17:32;;;;;;;8.50;4.10;;;;;;;4.75;63.74;101823.53;5069111;28;20063;-70
2022/04/18 03:19:59;;;;;;;7.68;4.18;;;;;;;4.75;64.58;101820.84;5067586;28;20032;-69
2022/04/18 03:22:24;;;;;;;5.65;4.00;;;;;;;4.69;65.43;101823.72;5051197;28;20090;-68
2022/04/18 03:24:54;;;;;;;9.00;4.00;;;;;;;4.66;64.12;101824.69;5064657;28;20419;-69
2022/04/18 03:27:21;;;;;;;6.18;4.30;;;;;;;4.61;64.64;101832.94;5064379;28;20039;-67
2022/04/18 03:29:46;;;;;;;6.82;3.95;;;;;;;4.59;63.68;101817.75;5066113;28;20459;-70
2022/04/18 03:32:18;;;;;;;6.88;4.13;;;;;;;4.59;64.75;101823.16;5065097;28;20024;-70
2022/04/18 03:34:44;;;;;;;6.97;3.95;;;;;;;4.55;63.70;101827.75;5068512;28;20039;-77
2022/04/18 03:39:54;;;;;;;5.47;3.72;;;;;;;4.51;63.82;101820.69;5064293;28;20623;-75
2022/04/18 03:42:31;;;;;;;6.68;4.38;;;;;;;4.52;63.55;101822.47;5050725;28;20073;-75
2022/04/18 03:45:05;;;;;;;4.28;3.83;;;;;;;4.51;64.68;101828.78;5065630;28;20028;-69
2022/04/18 03:47:31;;;;;;;5.85;3.88;;;;;;;4.47;64.56;101832.50;5052103;28;20138;-69
2022/04/18 03:49:57;;;;;;;4.53;3.70;;;;;;;4.43;65.26;101830.84;5068338;28;20046;-75
2022/04/18 03:52:24;;;;;;;5.40;3.90;;;;;;;4.38;65.76;101832.78;5050764;28;20082;-74
2022/04/18 03:54:51;;;;;;;5.70;3.75;;;;;;;4.28;66.59;101832.19;5060962;28;20471;-75
2022/04/18 03:57:21;;;;;;;7.05;4.13;;;;;;;4.16;67.63;101827.19;5061173;28;20112;-75
2022/04/18 03:59:54;;;;;;;8.45;4.13;;;;;;;4.10;67.49;101827.34;5066371;28;20035;-69
2022/04/18 04:02:21;;;;;;;7.78;4.63;;;;;;;4.02;68.74;101822.22;5051487;28;20040;-74
2022/04/18 04:04:51;;;;;;;9.13;5.18;;;;;;;3.99;69.36;101832.19;5063939;28;20036;-68
2022/04/18 04:07:17;;;;;;;6.70;4.63;;;;;;;3.91;68.49;101824.31;5063361;28;20028;-69
2022/04/18 04:09:44;;;;;;;5.78;4.40;;;;;;;3.82;68.97;101825.50;5063844;28;20495;-74
2022/04/18 04:12:12;;;;;;;7.18;4.32;;;;;;;3.81;69.51;101823.69;5069193;28;20032;-69
2022/04/18 04:14:59;;;;;;;9.15;5.05;;;;;;;3.83;68.33;101823.69;5042511;28;20048;-75
2022/04/18 04:17:26;;;;;;;11.15;4.38;;;;;;;3.84;67.10;101828.13;5051364;28;20452;-68
2022/04/18 04:19:52;;;;;;;8.02;4.07;;;;;;;3.87;67.02;101819.97;5051318;28;20043;-75
2022/04/18 04:22:29;;;;;;;5.22;3.85;;;;;;;3.88;67.36;101815.47;5064512;28;20452;-69
2022/04/18 04:25:04;;;;;;;8.13;4.30;;;;;;;3.87;68.72;101819.06;5065182;28;20450;-75
2022/04/18 04:27:32;;;;;;;7.70;4.25;;;;;;;3.80;69.30;101818.38;5061946;28;20033;-75
2022/04/18 04:30:00;;;;;;;7.22;4.35;;;;;;;3.75;70.01;101817.63;5047744;28;20024;-73
2022/04/18 04:32:36;;;;;;;7.45;4.10;;;;;;;3.74;69.64;101824.81;5063881;28;20055;-75
2022/04/18 04:35:03;;;;;;;6.25;3.65;;;;;;;3.73;67.81;101820.38;5067205;28;20029;-68
2022/04/18 04:37:32;;;;;;;6.20;4.50;;;;;;;3.75;69.55;101823.88;5051079;28;20033;-68
2022/04/18 04:40:17;;;;;;;5.82;4.15;;;;;;;3.74;68.00;101821.25;5064267;28;20036;-75
2022/04/18 04:42:43;;;;;;;5.32;3.58;;;;;;;3.79;67.24;101822.88;5050912;28;20041;-75
2022/04/18 04:45:09;;;;;;;6.68;3.88;;;;;;;3.81;67.77;101817.44;5068560;28;20093;-75
2022/04/18 04:47:53;;;;;;;6.85;4.45;;;;;;;3.78;68.58;101828.31;5071727;28;20140;-71
2022/04/18 04:50:18;;;;;;;7.78;4.50;;;;;;;3.76;68.19;101822.06;5058323;28;20111;-75
2022/04/18 04:52:53;;;;;;;6.93;4.90;;;;;;;3.77;68.13;101824.72;5070781;28;20029;-74
2022/04/18 04:55:22;;;;;;;8.43;4.32;;;;;;;3.76;70.33;101832.84;5069874;28;20500;-72
2022/04/18 04:57:49;;;;;;;6.45;4.45;;;;;;;3.83;69.26;101829.06;5066985;28;20044;-74
2022/04/18 05:00:35;;;;;;;6.68;4.20;;;;;;;3.88;69.69;101827.13;5058108;28;20048;-69
2022/04/18 05:03:26;;;;;;;5.50;3.97;;;;;;;3.86;70.19;101831.63;5066404;28;20052;-69
2022/04/18 05:05:52;;;;;;;7.13;4.10;;;;;;;3.85;69.98;101832.56;5071029;28;20033;-74
2022/04/18 05:08:26;;;;;;;10.68;4.15;;;;;;;3.82;69.43;101828.19;5053502;28;20032;-74
2022/04/18 05:10:54;;;;;;;6.30;4.35;;;;;;;3.90;69.93;101838.72;5064770;28;20480;-75
2022/04/18 05:13:27;;;;;;;7.03;4.15;;;;;;;3.95;69.78;101833.19;5066087;28;20032;-74
2022/04/18 05:15:52;;;;;;;6.32;4.38;;;;;;;4.00;69.72;101829.44;5071024;28;20093;-69
2022/04/18 05:18:36;;;;;;;7.88;3.58;;;;;;;4.02;69.09;101832.09;5072364;28;20031;-72
2022/04/18 05:21:01;;;;;;;8.35;3.80;;;;;;;4.05;67.44;101827.47;5071188;28;20028;-71
2022/04/18 05:23:27;;;;;;;6.60;4.30;;;;;;;4.17;66.89;101830.75;5069825;28;20056;-73
2022/04/18 05:25:54;;;;;;;8.02;4.40;;;;;;;4.27;66.98;101826.84;5069399;28;20054;-69
2022/04/18 05:28:20;;;;;;;8.38;4.32;;;;;;;4.39;67.08;101831.00;5065363;28;20032;-74
2022/04/18 05:30:50;;;;;;;7.13;4.35;;;;;;;4.51;67.05;101836.84;5069034;28;20051;-69
2022/04/18 05:33:16;;;;;;;23.17;5.50;;;;;;;4.57;66.55;101834.00;5069634;28;20402;-70
2022/04/18 05:36:04;;;;;;;22.13;5.18;;;;;;;4.64;66.33;101836.47;5072223;28;20048;-76
2022/04/18 05:38:34;;;;;;;18.55;4.20;;;;;;;4.71;65.78;101838.94;5070873;28;20123;-73
2022/04/18 05:41:05;;;;;;;13.95;4.97;;;;;;;4.81;65.41;101837.72;5069054;28;20460;-69
2022/04/18 05:43:32;;;;;;;11.00;4.80;;;;;;;4.94;64.93;101845.38;5066131;28;20033;-69
2022/04/18 05:45:57;;;;;;;11.25;4.82;;;;;;;5.02;64.50;101837.91;5069922;28;20449;-70
2022/04/18 05:48:23;;;;;;;6.55;4.53;;;;;;;5.09;64.78;101840.38;5069405;28;20119;-69
2022/04/18 05:50:53;;;;;;;5.50;3.88;;;;;;;5.16;63.79;101835.63;5066314;28;20024;-74
2022/04/18 05:53:28;;;;;;;7.15;4.10;;;;;;;5.22;64.51;101846.25;5046462;28;20055;-72
2022/04/18 05:56:04;;;;;;;7.80;4.30;;;;;;;5.27;63.88;101838.88;5064938;28;20064;-73
2022/04/18 05:58:44;;;;;;;6.53;4.20;;;;;;;5.38;64.05;101839.38;5062123;28;20032;-70
2022/04/18 06:01:32;;;;;;;7.63;4.13;;;;;;;5.52;63.01;101843.41;5070723;28;20124;-70
2022/04/18 06:04:03;;;;;;;6.28;4.45;;;;;;;5.67;62.90;101841.97;5069390;28;20025;-68
2022/04/18 06:06:29;;;;;;;7.93;4.55;;;;;;;5.75;63.63;101840.75;5067613;28;20032;-75
2022/04/18 06:08:54;;;;;;;5.32;4.40;;;;;;;5.87;64.32;101843.03;5069088;28;20396;-74
2022/04/18 06:11:25;;;;;;;8.75;4.32;;;;;;;6.00;62.49;101835.34;5053518;28;20028;-76
2022/04/18 06:13:58;;;;;;;7.18;4.22;;;;;;;6.18;63.12;101833.78;5053575;28;20020;-68
2022/04/18 06:16:24;;;;;;;6.10;4.10;;;;;;;6.58;60.95;101852.03;5055387;28;20035;-75
2022/04/18 06:18:50;;;;;;;7.30;4.18;;;;;;;6.75;61.40;101837.81;5054074;28;20029;-73
2022/04/18 06:21:15;;;;;;;6.45;4.30;;;;;;;6.83;60.94;101851.03;5052109;28;20399;-73
2022/04/18 06:23:43;;;;;;;6.88;4.18;;;;;;;6.94;60.13;101848.75;5070671;28;20038;-72
2022/04/18 06:26:27;;;;;;;8.43;4.03;;;;;;;7.11;60.52;101843.53;5062201;28;20121;-73
2022/04/18 06:28:54;;;;;;;6.10;3.80;;;;;;;7.14;60.78;101840.72;5066436;28;20036;-70
2022/04/18 06:31:19;;;;;;;6.55;3.90;;;;;;;7.19;59.88;101840.53;5069251;28;20035;-69
2022/04/18 06:33:54;;;;;;;6.15;3.72;;;;;;;7.43;59.84;101841.28;5048056;28;20392;-68
2022/04/18 06:36:20;;;;;;;7.93;4.57;;;;;;;8.32;58.03;101839.97;5061603;28;20024;-69
2022/04/18 06:38:54;;;;;;;5.20;4.22;;;;;;;8.74;57.50;101839.78;5069000;28;20063;-69
2022/04/18 06:41:24;;;;;;;6.20;3.88;;;;;;;8.75;57.20;101841.53;5045992;28;20488;-72
2022/04/18 06:43:50;;;;;;;11.15;3.95;;;;;;;8.87;56.82;101837.34;5062991;28;20060;-69
2022/04/18 06:46:18;;;;;;;5.93;3.90;;;;;;;9.41;56.10;101835.50;5066390;28;20036;-73
2022/04/18 06:48:43;;;;;;;6.20;4.13;;;;;;;9.78;53.29;101837.16;5068163;28;20024;-75
2022/04/18 06:51:27;;;;;;;6.75;4.20;;;;;;;9.86;53.28;101842.19;5065166;28;20047;-68
2022/04/18 06:54:12;;;;;;;5.50;4.03;;;;;;;9.80;53.68;101842.53;5066029;28;20051;-69
2022/04/18 06:57:01;;;;;;;6.25;3.92;;;;;;;9.71;53.92;101836.63;5068927;28;20032;-69
2022/04/18 06:59:37;;;;;;;7.53;3.42;;;;;;;10.19;54.02;101834.94;5061932;28;20036;-74
2022/04/18 07:02:03;;;;;;;4.72;3.40;;;;;;;10.84;52.72;101843.09;5069026;28;20150;-74
2022/04/18 07:04:28;;;;;;;5.53;3.70;;;;;;;11.48;48.61;101843.88;5064040;28;20049;-73
2022/04/18 07:06:54;;;;;;;7.03;3.78;;;;;;;11.74;47.34;101840.44;5065276;28;20112;-73
2022/04/18 07:09:21;;;;;;;5.40;3.45;;;;;;;11.50;48.13;101833.75;5063798;28;20024;-69
2022/04/18 07:11:52;;;;;;;4.22;3.63;;;;;;;11.18;50.04;101842.00;5067806;28;20052;-68
2022/04/18 07:14:20;;;;;;;4.90;3.60;;;;;;;11.04;49.14;101835.63;5065827;28;20373;-74
2022/04/18 07:16:50;;;;;;;3.83;3.42;;;;;;;11.01;48.50;101824.94;5067794;28;20032;-73
2022/04/18 07:19:20;;;;;;;9.73;3.13;;;;;;;10.98;49.22;101835.00;5051789;28;20442;-68
2022/04/18 07:21:45;;;;;;;4.25;3.85;;;;;;;10.95;49.00;101834.31;5068328;28;20028;-68
2022/04/18 07:24:11;;;;;;;5.82;3.28;;;;;;;10.87;48.64;101834.78;5049955;28;20305;-69
2022/04/18 07:26:38;;;;;;;6.20;3.78;;;;;;;10.80;48.51;101827.03;5059391;28;20110;-73
2022/04/18 07:29:03;;;;;;;6.43;3.80;;;;;;;10.82;49.38;101830.53;5065187;28;20024;-68
2022/04/18 07:31:29;;;;;;;5.38;3.85;;;;;;;10.84;48.03;101837.66;5051509;28;20070;-73
2022/04/18 07:33:54;;;;;;;4.70;3.33;;;;;;;10.96;46.98;101830.63;5068452;28;20081;-75
2022/04/18 07:36:21;;;;;;;5.60;2.92;;;;;;;11.04;50.19;101831.03;5048835;28;20325;-75
2022/04/18 07:38:50;;;;;;;4.55;3.50;;;;;;;11.12;50.12;101819.72;5051783;28;20024;-68
2022/04/18 07:41:21;;;;;;;4.85;3.42;;;;;;;11.46;48.38;101815.84;5051084;28;20135;-75
2022/04/18 07:43:48;;;;;;;7.53;3.67;;;;;;;12.16;49.92;101814.22;5048881;28;20021;-74
2022/04/18 07:46:17;;;;;;;3.63;2.60;;;;;;;12.83;45.94;101813.56;5060840;28;20498;-68
2022/04/18 07:48:44;;;;;;;3.70;2.97;;;;;;;13.38;43.77;101813.47;5066966;28;20028;-73
2022/04/18 07:53:54;;;;;;;3.78;3.10;;;;;;;14.18;41.65;101808.72;5069218;28;20044;-69
2022/04/18 07:56:20;;;;;;;8.27;3.35;;;;;;;14.25;41.85;101806.38;5067241;28;20067;-72
2022/04/18 07:58:46;;;;;;;4.35;2.38;;;;;;;14.39;42.54;101809.00;5065121;28;20036;-74
2022/04/18 08:01:19;;;;;;;4.10;2.50;;;;;;;14.50;42.80;101802.75;5068141;28;20043;-72
2022/04/18 08:03:45;;;;;;;3.33;2.40;;;;;;;14.82;41.80;101807.72;5067079;28;20024;-74
2022/04/18 08:06:11;;;;;;;5.68;2.75;;;;;;;15.12;41.76;101808.16;5069287;28;20039;-67
2022/04/18 08:08:44;;;;;;;5.03;2.60;;;;;;;15.77;42.28;101810.41;5066835;28;20036;-74
2022/04/18 08:11:11;;;;;;;4.35;2.97;;;;;;;16.34;39.88;101803.09;5067150;28;20142;-69
2022/04/18 08:13:39;;;;;;;10.52;3.42;;;;;;;16.58;37.77;101800.22;5064929;28;20040;-72
2022/04/18 08:16:34;;;;;;;3.63;2.80;;;;;;;16.71;37.89;101806.44;5068677;28;20097;-74
2022/04/18 08:19:04;;;;;;;4.90;3.00;;;;;;;16.86;36.17;101803.47;5072253;28;20111;-67
2022/04/18 08:21:30;;;;;;;4.18;2.80;;;;;;;17.25;34.50;101810.19;5054437;28;20178;-71
2022/04/18 08:23:56;;;;;;;5.30;3.25;;;;;;;17.69;35.51;101806.38;5071813;28;20044;-71
2022/04/18 08:26:45;;;;;;;4.20;2.45;;;;;;;18.12;35.29;101810.00;5063260;28;20047;-68
2022/04/18 08:29:22;;;;;;;3.10;2.70;;;;;;;18.57;34.33;101808.63;5063807;28;20541;-74
2022/04/18 08:32:04;;;;;;;3.93;2.83;;;;;;;18.69;34.31;101809.41;5053283;28;20036;-66
2022/04/18 08:34:32;;;;;;;6.13;2.80;;;;;;;18.66;30.49;101815.19;5066409;28;20036;-71
2022/04/18 08:36:57;;;;;;;2.70;2.25;;;;;;;18.80;30.27;101816.72;5071856;28;20058;-74
2022/04/18 08:39:28;;;;;;;3.13;2.60;;;;;;;18.59;27.96;101811.22;5066723;28;20087;-68
2022/04/18 08:42:11;;;;;;;3.00;2.22;;;;;;;18.47;33.34;101809.63;5056179;28;20028;-65
2022/04/18 08:44:43;;;;;;;7.45;2.80;;;;;;;18.70;33.70;101807.53;5052093;28;20395;-66
2022/04/18 08:52:43;;;;;;;3.65;2.20;;;;;;;18.93;30.81;101811.81;5071327;28;20120;-72
2022/04/18 08:52:44;;;;;;;3.10;2.38;;;;;;;19.25;32.46;101818.97;5070450;28;20462;-72
2022/04/18 08:55:30;;;;;;;5.63;2.25;;;;;;;19.35;31.11;101798.66;5065721;28;20043;-68
2022/04/18 08:57:56;;;;;;;3.10;2.35;;;;;;;19.42;31.64;101804.44;5066771;28;20028;-66
2022/04/18 09:00:23;;;;;;;5.72;2.10;;;;;;;19.36;29.98;101805.03;5067649;28;20033;-71
2022/04/18 09:02:57;;;;;;;3.55;2.00;;;;;;;19.51;31.33;101806.34;5071323;28;20089;-74
2022/04/18 09:05:26;;;;;;;4.00;2.35;;;;;;;19.82;27.66;101800.69;5070808;28;20028;-72
2022/04/18 09:08:00;;;;;;;4.05;2.47;;;;;;;20.05;32.28;101799.31;5070463;28;20559;-74
2022/04/18 09:10:29;;;;;;;3.78;2.45;;;;;;;20.07;30.01;101799.16;5062234;28;20116;-65
2022/04/18 09:13:07;;;;;;;7.47;2.70;;;;;;;20.09;29.76;101797.97;5063559;28;20882;-67
2022/04/18 09:15:50;;;;;;;2.88;2.20;;;;;;;20.34;28.92;101796.44;5070709;28;20047;-67
2022/04/18 09:18:23;;;;;;;5.65;2.55;;;;;;;20.63;29.56;101789.94;5066515;28;20033;-71
2022/04/18 09:20:56;;;;;;;6.53;2.60;;;;;;;20.55;28.20;101795.38;5069908;28;20029;-73
2022/04/18 09:23:26;;;;;;;6.22;2.58;;;;;;;20.54;30.24;101794.50;5070761;28;20024;-72
2022/04/18 09:26:00;;;;;;;8.07;2.60;;;;;;;20.58;29.97;101795.94;5059385;28;20087;-71
2022/04/18 09:28:27;;;;;;;5.05;2.30;;;;;;;20.51;28.92;101786.50;5064569;28;20194;-75
2022/04/18 09:30:58;;;;;;;4.40;2.50;;;;;;;20.50;29.51;101782.00;5062563;28;20388;-66
2022/04/18 09:33:28;;;;;;;2.95;2.17;;;;;;;20.54;31.64;101779.81;5069776;28;20028;-74
2022/04/18 09:36:06;;;;;;;4.93;2.25;;;;;;;20.57;27.93;101785.03;5070681;28;20488;-74
2022/04/18 09:38:39;;;;;;;2.30;2.00;;;;;;;20.58;29.61;101787.66;5070827;28;20036;-65
2022/04/18 09:41:15;;;;;;;3.30;2.10;;;;;;;20.60;28.52;101781.94;5070013;28;20123;-74
2022/04/18 09:43:46;;;;;;;3.30;2.20;;;;;;;20.63;27.86;101774.22;5066848;28;20395;-68
2022/04/18 09:46:17;;;;;;;3.20;2.20;;;;;;;20.68;28.24;101775.66;5070406;28;20036;-73
2022/04/18 09:49:01;;;;;;;3.72;2.35;;;;;;;20.84;29.55;101771.22;5070622;28;20032;-65
2022/04/18 09:51:29;;;;;;;3.92;2.58;;;;;;;20.96;29.90;101777.38;5069438;28;20042;-66
2022/04/18 09:54:23;;;;;;;3.80;2.40;;;;;;;20.94;27.22;101775.78;5053047;28;20104;-66
2022/04/18 09:56:50;;;;;;;4.15;2.50;;;;;;;21.19;29.80;101776.91;5067186;28;20028;-66
2022/04/18 09:59:17;;;;;;;2.35;2.05;;;;;;;21.08;29.45;101766.97;5059115;28;20029;-66
2022/04/18 10:01:44;;;;;;;4.13;2.55;;;;;;;21.07;27.01;101771.59;5071398;28;20017;-74
2022/04/18 10:04:11;;;;;;;5.22;2.47;;;;;;;21.12;27.52;101765.59;5069990;28;20033;-66
2022/04/18 10:06:40;;;;;;;4.57;2.42;;;;;;;21.24;27.29;101760.69;5064622;28;20059;-74
2022/04/18 10:09:06;;;;;;;2.70;2.33;;;;;;;21.18;27.81;101764.13;5071213;28;20039;-74
2022/04/18 10:11:32;;;;;;;2.92;2.42;;;;;;;21.15;27.69;101762.53;5062828;28;20036;-67
2022/04/18 10:13:57;;;;;;;3.33;2.70;;;;;;;21.22;27.84;101766.41;5056537;28;20074;-74
2022/04/18 10:16:23;;;;;;;5.50;2.67;;;;;;;21.31;28.76;101759.97;5069819;28;20111;-71
2022/04/18 10:18:54;;;;;;;4.15;2.60;;;;;;;21.35;26.61;101750.28;5072537;28;20081;-72
2022/04/18 10:21:30;;;;;;;3.60;2.70;;;;;;;21.39;28.07;101754.47;5071080;28;20116;-66
2022/04/18 10:24:35;;;;;;;3.38;2.60;;;;;;;21.41;29.13;101746.03;5066300;28;20036;-72
2022/04/18 10:27:49;;;;;;;4.05;2.83;;;;;;;21.54;28.43;101746.47;5063353;28;20119;-66
2022/04/18 10:30:16;;;;;;;3.15;2.50;;;;;;;21.62;25.78;101743.75;5036945;28;20048;-73
2022/04/18 10:32:42;;;;;;;5.38;2.50;;;;;;;21.75;27.15;101742.47;5070883;28;20028;-68
2022/04/18 10:35:12;;;;;;;2.83;2.15;;;;;;;21.82;24.30;101726.91;5070600;28;20036;-73
2022/04/18 10:37:41;;;;;;;3.33;2.60;;;;;;;21.62;22.89;101734.59;5060231;28;20094;-71
2022/04/18 10:40:07;;;;;;;2.83;2.40;;;;;;;21.98;29.23;101738.13;5065351;28;20109;-68
2022/04/18 10:42:35;;;;;;;3.85;2.30;;;;;;;22.35;25.18;101732.28;5068470;28;20051;-74
2022/04/18 10:45:16;;;;;;;5.90;2.60;;;;;;;22.53;25.61;101734.97;5052491;28;20140;-73
2022/04/18 10:48:01;;;;;;;3.10;2.55;;;;;;;22.81;27.18;101731.94;5070733;28;20070;-65
2022/04/18 10:50:35;;;;;;;2.70;2.33;;;;;;;22.79;24.85;101726.53;5069739;28;20113;-67
2022/04/18 10:53:21;;;;;;;4.53;2.67;;;;;;;22.81;26.04;101730.03;5070403;28;20044;-74
2022/04/18 10:55:53;;;;;;;5.45;2.60;;;;;;;22.77;24.69;101723.06;5057329;28;20495;-66
2022/04/18 10:58:28;;;;;;;5.22;3.13;;;;;;;22.85;26.40;101723.09;5057829;28;20029;-71
2022/04/18 11:00:57;;;;;;;4.20;2.90;;;;;;;22.98;23.03;101722.63;5057656;28;20123;-66
2022/04/18 11:03:43;;;;;;;4.43;2.88;;;;;;;22.92;24.32;101717.75;5070142;28;20067;-66
2022/04/18 11:06:15;;;;;;;3.90;3.03;;;;;;;22.83;24.20;101725.16;5058854;28;20432;-67
2022/04/18 11:08:40;;;;;;;4.10;3.03;;;;;;;22.63;20.85;101720.97;5059171;28;20059;-73
2022/04/18 11:11:07;;;;;;;4.43;3.08;;;;;;;22.05;21.09;101719.78;5061864;28;20036;-71
2022/04/18 11:13:33;;;;;;;3.40;2.72;;;;;;;21.86;25.55;101714.50;5056134;28;20650;-73
2022/04/18 11:16:23;;;;;;;3.15;2.60;;;;;;;22.00;25.45;101722.19;5069333;28;20038;-74
2022/04/18 11:19:13;;;;;;;3.88;2.83;;;;;;;22.00;23.63;101713.88;5066124;28;20111;-65
2022/04/18 11:21:57;;;;;;;6.43;2.80;;;;;;;21.79;24.27;101711.50;5069863;28;20119;-72
2022/04/18 11:24:41;;;;;;;4.07;3.03;;;;;;;21.63;23.90;101703.06;5056216;28;20432;-68
2022/04/18 11:27:10;;;;;;;3.83;3.00;;;;;;;21.51;25.56;101704.41;5060510;28;20089;-68
2022/04/18 11:29:39;;;;;;;3.95;3.00;;;;;;;21.39;28.00;101704.63;5058149;28;20526;-70
2022/04/18 11:32:06;;;;;;;5.32;3.25;;;;;;;21.27;25.57;101705.91;5065995;28;20028;-65
2022/04/18 11:34:33;;;;;;;6.20;3.47;;;;;;;21.49;25.26;101701.75;5068902;28;20649;-66
2022/04/18 11:37:02;;;;;;;8.27;3.30;;;;;;;21.78;26.31;101704.25;5061712;28;20024;-67
2022/04/18 11:39:52;;;;;;;4.22;3.45;;;;;;;21.80;24.09;101696.63;5067714;28;20091;-71
2022/04/18 11:42:19;;;;;;;3.22;2.85;;;;;;;21.97;24.38;101696.72;5055137;28;20063;-66
2022/04/18 11:44:46;;;;;;;4.43;2.90;;;;;;;21.97;22.55;101692.06;5051052;28;20060;-72
2022/04/18 11:47:23;;;;;;;7.47;2.70;;;;;;;22.49;27.27;101693.88;5069613;28;20043;-66
2022/04/18 11:49:54;;;;;;;4.03;2.63;;;;;;;22.67;24.54;101697.41;5051160;28;20040;-74
2022/04/18 11:52:21;;;;;;;4.35;2.60;;;;;;;22.66;23.55;101695.63;5067318;28;20039;-71
2022/04/18 11:55:05;;;;;;;4.43;2.90;;;;;;;22.58;24.72;101698.41;5057846;28;20212;-73
2022/04/18 11:57:34;;;;;;;3.13;2.58;;;;;;;22.70;28.13;101698.94;5051577;28;20055;-66